createdAt,value
2022-08-28T00:00:14.887Z,96061.47
2022-08-28T00:02:43.002Z,96064.09
2022-08-28T00:05:11.653Z,96073.25
2022-08-28T00:07:42.296Z,96072.19
2022-08-28T00:10:14.573Z,96069.56
2022-08-28T00:12:44.248Z,96071.69
2022-08-28T00:15:14.190Z,96065.91
2022-08-28T00:17:42.140Z,96069.56
2022-08-28T00:20:11.443Z,96073.81
2022-08-28T00:22:40.067Z,96078.00
2022-08-28T00:25:09.531Z,96074.50
2022-08-28T00:27:57.291Z,96079.53
2022-08-28T00:30:30.033Z,96081.94
2022-08-28T00:33:00.207Z,96092.16
2022-08-28T00:35:27.939Z,96081.66
2022-08-28T00:37:56.631Z,96090.38
2022-08-28T00:40:28.659Z,96084.06
2022-08-28T00:43:01.653Z,96086.19
2022-08-28T00:45:36.005Z,96090.16
2022-08-28T00:48:06.514Z,96090.94
2022-08-28T00:50:50.456Z,96065.38
2022-08-28T00:53:19.407Z,96086.94
2022-08-28T00:55:46.863Z,96079.34
2022-08-28T00:58:15.098Z,96085.16
2022-08-28T01:00:44.063Z,96088.31
2022-08-28T01:03:11.717Z,96077.06
2022-08-28T01:05:43.406Z,96085.22
2022-08-28T01:08:10.982Z,96093.06
2022-08-28T01:10:41.487Z,96091.44
2022-08-28T01:13:09.023Z,96089.44
2022-08-28T01:15:39.091Z,96086.16
2022-08-28T01:18:11.280Z,96085.97
2022-08-28T01:20:44.636Z,96098.81
2022-08-28T01:23:20.230Z,96094.97
2022-08-28T01:25:49.058Z,96084.28
2022-08-28T01:28:16.748Z,96085.34
2022-08-28T01:30:48.374Z,96081.66
2022-08-28T01:33:16.387Z,96082.44
2022-08-28T01:35:48.419Z,96080.66
2022-08-28T01:38:20.151Z,96077.97
2022-08-28T01:40:54.270Z,96075.13
2022-08-28T01:43:26.068Z,96076.72
2022-08-28T01:45:56.207Z,96079.06
2022-08-28T01:48:27.055Z,96071.44
2022-08-28T01:50:54.698Z,96068.66
2022-08-28T01:53:25.606Z,96066.03
2022-08-28T01:56:04.490Z,96081.59
2022-08-28T01:58:37.437Z,96082.72
2022-08-28T02:01:09.530Z,96071.03
2022-08-28T02:03:37.184Z,96066.59
2022-08-28T02:06:05.123Z,96076.31
2022-08-28T02:08:32.659Z,96080.59
2022-08-28T02:11:01.480Z,96082.19
2022-08-28T02:13:29.007Z,96086.66
2022-08-28T02:15:57.890Z,96091.41
2022-08-28T02:18:25.521Z,96082.16
2022-08-28T02:20:53.165Z,96091.25
2022-08-28T02:23:20.738Z,96090.38
2022-08-28T02:25:48.406Z,96083.63
2022-08-28T02:28:19.619Z,96092.06
2022-08-28T02:30:47.202Z,96088.69
2022-08-28T02:33:14.746Z,96090.88
2022-08-28T02:35:42.968Z,96090.94
2022-08-28T02:38:11.553Z,96087.31
2022-08-28T02:40:41.951Z,96100.72
2022-08-28T02:43:09.745Z,96090.50
2022-08-28T02:45:38.543Z,96093.38
2022-08-28T02:48:11.956Z,96100.25
2022-08-28T02:50:46.102Z,96085.06
2022-08-28T02:53:14.654Z,96093.25
2022-08-28T02:55:42.126Z,96087.72
2022-08-28T02:58:10.078Z,96083.56
2022-08-28T03:00:38.952Z,96092.06
2022-08-28T03:03:06.424Z,96087.66
2022-08-28T03:05:33.928Z,96082.72
2022-08-28T03:08:01.410Z,96087.44
2022-08-28T03:10:28.927Z,96087.19
2022-08-28T03:12:56.387Z,96085.59
2022-08-28T03:15:23.849Z,96091.13
2022-08-28T03:17:52.653Z,96097.41
2022-08-28T03:20:20.487Z,96088.56
2022-08-28T03:23:05.788Z,96094.56
2022-08-28T03:25:33.262Z,96083.56
2022-08-28T03:28:00.714Z,96098.03
2022-08-28T03:30:28.235Z,96097.75
2022-08-28T03:32:57.129Z,96094.59
2022-08-28T03:35:24.571Z,96093.31
2022-08-28T03:37:52.064Z,96101.41
2022-08-28T03:40:20.237Z,96085.69
2022-08-28T03:42:52.998Z,96087.75
2022-08-28T03:45:22.146Z,96093.53
2022-08-28T03:47:50.805Z,96090.41
2022-08-28T03:50:19.993Z,96084.41
2022-08-28T03:52:47.708Z,96087.53
2022-08-28T03:55:15.704Z,96089.88
2022-08-28T03:57:43.150Z,96095.66
2022-08-28T04:00:14.047Z,96082.31
2022-08-28T04:02:42.046Z,96100.69
2022-08-28T04:05:10.983Z,96104.09
2022-08-28T04:07:40.366Z,96102.53
2022-08-28T04:10:09.043Z,96106.22
2022-08-28T04:12:37.062Z,96102.28
2022-08-28T04:15:07.065Z,96098.34
2022-08-28T04:17:34.783Z,96114.84
2022-08-28T04:20:02.254Z,96113.56
2022-08-28T04:22:30.664Z,96098.63
2022-08-28T04:24:59.489Z,96114.84
2022-08-28T04:27:27.038Z,96118.81
2022-08-28T04:29:54.522Z,96120.09
2022-08-28T04:32:22.383Z,96123.00
2022-08-28T04:34:49.863Z,96123.22
2022-08-28T04:37:17.910Z,96116.94
2022-08-28T04:39:45.414Z,96118.53
2022-08-28T04:42:15.960Z,96121.94
2022-08-28T04:44:43.474Z,96129.78
2022-08-28T04:47:10.971Z,96125.09
2022-08-28T04:49:38.771Z,96130.84
2022-08-28T04:52:06.429Z,96116.94
2022-08-28T04:54:34.799Z,96126.38
2022-08-28T04:57:02.642Z,96126.38
2022-08-28T04:59:35.846Z,96128.22
2022-08-28T05:02:05.195Z,96133.72
2022-08-28T05:04:32.716Z,96132.41
2022-08-28T05:07:00.203Z,96149.97
2022-08-28T05:09:27.701Z,96145.75
2022-08-28T05:11:55.324Z,96155.19
2022-08-28T05:14:22.811Z,96151.53
2022-08-28T05:16:53.833Z,96150.22
2022-08-28T05:19:21.880Z,96163.84
2022-08-28T05:21:49.861Z,96148.91
2022-08-28T05:24:17.952Z,96153.38
2022-08-28T05:26:48.013Z,96159.66
2022-08-28T05:29:16.653Z,96163.06
2022-08-28T05:31:44.546Z,96167.78
2022-08-28T05:34:16.266Z,96171.44
2022-08-28T05:36:44.050Z,96172.75
2022-08-28T05:39:13.353Z,96168.56
2022-08-28T05:41:43.088Z,96164.09
2022-08-28T05:44:12.798Z,96175.09
2022-08-28T05:46:44.360Z,96174.56
2022-08-28T05:49:13.025Z,96176.44
2022-08-28T05:51:42.933Z,96169.09
2022-08-28T05:54:11.725Z,96181.94
2022-08-28T05:56:40.672Z,96182.69
2022-08-28T05:59:08.991Z,96187.69
2022-08-28T06:01:40.267Z,96182.47
2022-08-28T06:04:09.667Z,96184.81
2022-08-28T06:06:39.489Z,96184.84
2022-08-28T06:09:11.737Z,96185.88
2022-08-28T06:11:44.011Z,96191.88
2022-08-28T06:14:15.773Z,96192.44
2022-08-28T06:16:47.062Z,96193.75
2022-08-28T06:19:15.190Z,96186.38
2022-08-28T06:21:44.171Z,96186.41
2022-08-28T06:24:13.359Z,96189.28
2022-08-28T06:26:41.524Z,96184.31
2022-08-28T06:29:11.408Z,96189.81
2022-08-28T06:31:39.314Z,96188.75
2022-08-28T06:34:07.612Z,96201.88
2022-08-28T06:36:37.627Z,96213.41
2022-08-28T06:39:06.899Z,96204.75
2022-08-28T06:41:40.771Z,96205.25
2022-08-28T06:44:08.771Z,96204.75
2022-08-28T06:46:36.766Z,96200.81
2022-08-28T06:49:07.855Z,96206.88
2022-08-28T06:51:35.404Z,96205.28
2022-08-28T06:54:03.093Z,96205.50
2022-08-28T06:56:31.124Z,96204.97
2022-08-28T06:59:00.689Z,96205.19
2022-08-28T07:01:30.371Z,96202.00
2022-08-28T07:04:00.983Z,96206.75
2022-08-28T07:06:31.632Z,96208.78
2022-08-28T07:08:59.123Z,96207.47
2022-08-28T07:11:28.734Z,96204.16
2022-08-28T07:13:57.069Z,96213.13
2022-08-28T07:16:28.131Z,96215.97
2022-08-28T07:18:55.615Z,96212.34
2022-08-28T07:21:23.410Z,96219.88
2022-08-28T07:23:51.142Z,96223.00
2022-08-28T07:26:22.417Z,96227.44
2022-08-28T07:28:50.344Z,96214.53
2022-08-28T07:31:20.159Z,96221.03
2022-08-28T07:33:53.871Z,96229.22
2022-08-28T07:36:29.037Z,96228.19
2022-08-28T07:38:58.986Z,96224.22
2022-08-28T07:41:28.760Z,96221.06
2022-08-28T07:44:13.799Z,96230.34
2022-08-28T07:46:42.069Z,96235.41
2022-08-28T07:49:11.580Z,96223.13
2022-08-28T07:51:39.049Z,96227.44
2022-08-28T07:54:06.690Z,96233.94
2022-08-28T07:56:42.195Z,96240.91
2022-08-28T07:59:11.995Z,96226.22
2022-08-28T08:01:43.990Z,96240.00
2022-08-28T08:04:15.711Z,96239.44
2022-08-28T08:06:43.996Z,96239.88
2022-08-28T08:09:14.500Z,96242.09
2022-08-28T08:11:42.609Z,96241.09
2022-08-28T08:14:10.055Z,96251.19
2022-08-28T08:16:40.859Z,96248.41
2022-08-28T08:19:10.316Z,96242.94
2022-08-28T08:21:39.391Z,96246.56
2022-08-28T08:24:07.788Z,96248.84
2022-08-28T08:26:35.310Z,96241.88
2022-08-28T08:29:02.894Z,96251.03
2022-08-28T08:31:32.904Z,96244.22
2022-08-28T08:34:03.453Z,96248.25
2022-08-28T08:36:33.039Z,96253.72
2022-08-28T08:39:06.427Z,96253.78
2022-08-28T08:41:47.833Z,96248.09
2022-08-28T08:44:33.331Z,96258.44
2022-08-28T08:47:14.117Z,96262.84
2022-08-28T08:49:48.238Z,96265.47
2022-08-28T08:52:29.043Z,96255.72
2022-08-28T08:55:08.736Z,96259.94
2022-08-28T08:57:39.295Z,96262.16
2022-08-28T09:00:15.069Z,96258.09
2022-08-28T09:02:49.290Z,96261.25
2022-08-28T09:05:21.387Z,96263.53
2022-08-28T09:07:56.636Z,96264.88
2022-08-28T09:10:32.836Z,96267.00
2022-08-28T09:13:07.112Z,96262.50
2022-08-28T09:15:40.466Z,96259.84
2022-08-28T09:18:15.043Z,96264.66
2022-08-28T09:20:42.958Z,96269.94
2022-08-28T09:23:12.817Z,96278.22
2022-08-28T09:25:52.243Z,96272.41
2022-08-28T09:28:23.100Z,96272.16
2022-08-28T09:30:58.924Z,96279.56
2022-08-28T09:33:41.710Z,96276.22
2022-08-28T09:36:29.909Z,96278.00
2022-08-28T09:39:07.723Z,96267.63
2022-08-28T09:41:58.832Z,96274.63
2022-08-28T09:44:26.548Z,96271.66
2022-08-28T09:46:54.258Z,96272.59
2022-08-28T09:49:27.883Z,96273.78
2022-08-28T09:51:56.294Z,96265.81
2022-08-28T09:54:31.336Z,96264.00
2022-08-28T09:57:00.951Z,96279.19
2022-08-28T09:59:29.808Z,96270.41
2022-08-28T10:02:11.252Z,96282.38
2022-08-28T10:04:50.626Z,96282.66
2022-08-28T10:07:26.744Z,96268.03
2022-08-28T10:10:03.101Z,96282.97
2022-08-28T10:12:59.331Z,96279.00
2022-08-28T10:15:33.624Z,96271.91
2022-08-28T10:18:28.826Z,96274.38
2022-08-28T10:21:03.876Z,96280.06
2022-08-28T10:23:42.710Z,96288.75
2022-08-28T10:26:24.419Z,96272.09
2022-08-28T10:29:03.815Z,96287.28
2022-08-28T10:31:43.829Z,96281.06
2022-08-28T10:34:27.542Z,96267.97
2022-08-28T10:37:02.001Z,96296.22
2022-08-28T10:39:40.212Z,96284.06
2022-08-28T10:42:08.484Z,96280.16
2022-08-28T10:44:45.020Z,96280.34
2022-08-28T10:47:14.949Z,96276.97
2022-08-28T10:49:45.082Z,96268.84
2022-08-28T10:52:18.572Z,96282.06
2022-08-28T10:54:51.479Z,96269.91
2022-08-28T10:57:30.900Z,96275.69
2022-08-28T11:00:04.059Z,96263.94
2022-08-28T11:02:32.761Z,96280.53
2022-08-28T11:05:00.386Z,96285.88
2022-08-28T11:07:33.100Z,96278.06
2022-08-28T11:10:23.527Z,96275.72
2022-08-28T11:12:52.602Z,96266.41
2022-08-28T11:15:45.415Z,96288.13
2022-08-28T11:18:49.601Z,96294.47
2022-08-28T11:21:24.972Z,96265.00
2022-08-28T11:24:00.566Z,96288.16
2022-08-28T11:26:36.423Z,96282.47
2022-08-28T11:29:04.795Z,96277.25
2022-08-28T11:31:42.413Z,96282.97
2022-08-28T11:34:50.624Z,96296.25
2022-08-28T11:37:43.550Z,96298.16
2022-08-28T11:40:18.181Z,96282.38
2022-08-28T11:42:48.616Z,96288.44
2022-08-28T11:45:21.666Z,96285.94
2022-08-28T11:47:57.641Z,96287.59
2022-08-28T11:50:29.366Z,96283.03
2022-08-28T11:53:25.856Z,96286.19
2022-08-28T11:56:16.031Z,96298.91
2022-08-28T11:59:08.087Z,96300.66
2022-08-28T12:01:39.164Z,96292.44
2022-08-28T12:04:12.210Z,96287.59
2022-08-28T12:06:54.462Z,96279.53
2022-08-28T12:09:42.636Z,96289.38
2022-08-28T12:12:52.452Z,96285.81
2022-08-28T12:15:41.473Z,96287.59
2022-08-28T12:18:16.945Z,96288.75
2022-08-28T12:21:03.840Z,96297.63
2022-08-28T12:23:45.587Z,96273.53
2022-08-28T12:26:23.388Z,96251.03
2022-08-28T12:28:54.938Z,96275.00
2022-08-28T12:32:00.284Z,96277.50
2022-08-28T12:34:39.315Z,96254.34
2022-08-28T12:37:28.754Z,96270.38
2022-08-28T12:39:58.795Z,96279.78
2022-08-28T12:42:32.334Z,96275.72
2022-08-28T12:45:03.308Z,96271.28
2022-08-28T12:47:31.207Z,96289.19
2022-08-28T12:49:58.716Z,96281.13
2022-08-28T12:52:27.533Z,96271.56
2022-08-28T12:54:56.358Z,96258.03
2022-08-28T12:57:25.992Z,96281.97
2022-08-28T12:59:54.848Z,96281.31
2022-08-28T13:02:27.609Z,96279.59
2022-08-28T13:04:58.122Z,96268.75
2022-08-28T13:07:30.934Z,96277.06
2022-08-28T13:10:03.354Z,96274.56
2022-08-28T13:12:56.016Z,96269.06
2022-08-28T13:16:00.734Z,96264.28
2022-08-28T13:18:36.292Z,96266.88
2022-08-28T13:21:37.103Z,96249.22
2022-08-28T13:24:29.335Z,96264.28
2022-08-28T13:27:03.188Z,96271.03
2022-08-28T13:29:31.358Z,96263.44
2022-08-28T13:32:01.334Z,96272.47
2022-08-28T13:34:30.968Z,96260.63
2022-08-28T13:37:01.184Z,96258.94
2022-08-28T13:39:32.615Z,96253.44
2022-08-28T13:42:06.062Z,96256.22
2022-08-28T13:44:36.658Z,96247.41
2022-08-28T13:47:07.613Z,96259.69
2022-08-28T13:49:35.493Z,96252.41
2022-08-28T13:52:06.383Z,96254.72
2022-08-28T13:54:36.630Z,96249.59
2022-08-28T13:57:04.882Z,96252.53
2022-08-28T13:59:33.038Z,96241.28
2022-08-28T14:02:21.531Z,96234.16
2022-08-28T14:04:48.988Z,96236.50
2022-08-28T14:07:17.015Z,96229.59
2022-08-28T14:09:45.906Z,96233.88
2022-08-28T14:12:14.739Z,96242.94
2022-08-28T14:14:42.293Z,96237.63
2022-08-28T14:17:10.879Z,96222.47
2022-08-28T14:19:38.631Z,96237.59
2022-08-28T14:22:06.220Z,96234.03
2022-08-28T14:24:33.728Z,96239.03
2022-08-28T14:27:02.590Z,96226.00
2022-08-28T14:29:31.332Z,96235.41
2022-08-28T14:32:01.653Z,96236.63
2022-08-28T14:34:29.299Z,96231.59
2022-08-28T14:36:56.763Z,96235.97
2022-08-28T14:39:26.459Z,96236.00
2022-08-28T14:41:54.703Z,96223.53
2022-08-28T14:44:25.107Z,96232.09
2022-08-28T14:46:57.009Z,96224.41
2022-08-28T14:49:26.347Z,96216.13
2022-08-28T14:51:54.929Z,96231.13
2022-08-28T14:54:24.339Z,96217.13
2022-08-28T14:56:52.975Z,96222.44
2022-08-28T14:59:24.798Z,96221.13
2022-08-28T15:01:53.498Z,96229.06
2022-08-28T15:04:23.877Z,96223.22
2022-08-28T15:06:55.778Z,96217.50
2022-08-28T15:09:23.239Z,96229.91
2022-08-28T15:11:50.773Z,96223.72
2022-08-28T15:14:18.230Z,96218.44
2022-08-28T15:16:49.031Z,96213.47
2022-08-28T15:19:18.177Z,96219.66
2022-08-28T15:21:48.030Z,96231.09
2022-08-28T15:24:16.763Z,96226.28
2022-08-28T15:26:44.842Z,96234.00
2022-08-28T15:29:12.592Z,96230.38
2022-08-28T15:31:43.062Z,96228.75
2022-08-28T15:34:14.326Z,96207.03
2022-08-28T15:36:42.652Z,96211.09
2022-08-28T15:39:28.303Z,96227.88
2022-08-28T15:41:56.552Z,96215.28
2022-08-28T15:44:24.058Z,96232.47
2022-08-28T15:46:53.773Z,96219.81
2022-08-28T15:49:24.150Z,96220.56
2022-08-28T15:51:52.034Z,96217.91
2022-08-28T15:54:20.225Z,96219.50
2022-08-28T15:56:48.013Z,96215.00
2022-08-28T15:59:18.787Z,96212.66
2022-08-28T16:01:46.591Z,96221.88
2022-08-28T16:04:14.976Z,96215.03
2022-08-28T16:06:43.835Z,96217.06
2022-08-28T16:09:11.806Z,96214.94
2022-08-28T16:11:40.866Z,96222.13
2022-08-28T16:14:08.318Z,96216.81
2022-08-28T16:16:35.800Z,96217.38
2022-08-28T16:19:04.377Z,96219.31
2022-08-28T16:21:32.135Z,96219.47
2022-08-28T16:24:01.145Z,96227.91
2022-08-28T16:26:30.022Z,96215.50
2022-08-28T16:28:57.712Z,96217.19
2022-08-28T16:31:26.519Z,96205.06
2022-08-28T16:33:54.029Z,96213.25
2022-08-28T16:36:23.953Z,96214.66
2022-08-28T16:38:52.905Z,96216.88
2022-08-28T16:41:29.695Z,96208.88
2022-08-28T16:43:59.852Z,96207.16
2022-08-28T16:46:28.221Z,96209.75
2022-08-28T16:48:56.057Z,96215.09
2022-08-28T16:51:26.741Z,96210.06
2022-08-28T16:53:54.391Z,96208.22
2022-08-28T16:56:23.530Z,96208.81
2022-08-28T16:58:53.238Z,96191.38
2022-08-28T17:01:23.942Z,96208.13
2022-08-28T17:03:52.436Z,96196.78
2022-08-28T17:06:23.232Z,96215.44
2022-08-28T17:08:55.866Z,96215.84
2022-08-28T17:11:25.097Z,96213.66
2022-08-28T17:13:54.242Z,96212.56
2022-08-28T17:16:23.508Z,96214.69
2022-08-28T17:18:52.280Z,96218.91
2022-08-28T17:21:37.922Z,96219.38
2022-08-28T17:24:06.662Z,96216.63
2022-08-28T17:26:34.212Z,96221.59
2022-08-28T17:29:03.427Z,96230.16
2022-08-28T17:31:31.177Z,96223.22
2022-08-28T17:33:58.774Z,96224.72
2022-08-28T17:36:33.559Z,96215.22
2022-08-28T17:39:02.831Z,96225.28
2022-08-28T17:41:30.336Z,96225.81
2022-08-28T17:43:58.160Z,96230.03
2022-08-28T17:46:27.103Z,96220.81
2022-08-28T17:48:56.036Z,96224.31
2022-08-28T17:51:36.898Z,96222.72
2022-08-28T17:54:10.726Z,96224.66
2022-08-28T17:56:38.251Z,96217.19
2022-08-28T17:59:05.725Z,96214.66
2022-08-28T18:01:34.573Z,96225.06
2022-08-28T18:04:02.186Z,96220.66
2022-08-28T18:06:29.636Z,96217.34
2022-08-28T18:08:57.084Z,96225.75
2022-08-28T18:11:24.536Z,96224.78
2022-08-28T18:13:51.978Z,96228.50
2022-08-28T18:16:19.907Z,96228.94
2022-08-28T18:18:48.832Z,96213.53
2022-08-28T18:21:16.338Z,96227.69
2022-08-28T18:23:43.830Z,96215.19
2022-08-28T18:26:11.316Z,96230.50
2022-08-28T18:28:39.227Z,96227.34
2022-08-28T18:31:08.110Z,96234.59
2022-08-28T18:33:37.034Z,96241.19
2022-08-28T18:36:07.876Z,96240.06
2022-08-28T18:38:35.793Z,96242.91
2022-08-28T18:41:04.699Z,96236.06
2022-08-28T18:43:32.831Z,96244.34
2022-08-28T18:46:00.517Z,96256.09
2022-08-28T18:48:28.679Z,96257.00
2022-08-28T18:50:56.132Z,96261.00
2022-08-28T18:53:25.322Z,96247.00
2022-08-28T18:55:54.956Z,96265.09
2022-08-28T18:58:23.370Z,96269.94
2022-08-28T19:00:51.295Z,96265.56
2022-08-28T19:03:19.029Z,96266.50
2022-08-28T19:05:46.664Z,96270.47
2022-08-28T19:08:14.984Z,96273.44
2022-08-28T19:10:44.344Z,96276.16
2022-08-28T19:13:11.800Z,96270.88
2022-08-28T19:15:39.644Z,96283.31
2022-08-28T19:18:07.680Z,96280.50
2022-08-28T19:20:35.836Z,96280.56
2022-08-28T19:23:03.354Z,96280.63
2022-08-28T19:25:31.279Z,96283.06
2022-08-28T19:28:01.974Z,96283.28
2022-08-28T19:30:32.784Z,96285.47
2022-08-28T19:33:01.167Z,96283.66
2022-08-28T19:35:28.714Z,96290.97
2022-08-28T19:37:56.288Z,96272.72
2022-08-28T19:40:24.193Z,96297.16
2022-08-28T19:42:51.840Z,96275.38
2022-08-28T19:45:21.628Z,96294.22
2022-08-28T19:47:49.189Z,96304.13
2022-08-28T19:50:17.058Z,96295.94
2022-08-28T19:52:44.812Z,96294.78
2022-08-28T19:55:17.294Z,96294.53
2022-08-28T19:57:46.084Z,96304.00
2022-08-28T20:00:14.978Z,96306.88
2022-08-28T20:02:44.241Z,96303.81
2022-08-28T20:05:12.345Z,96312.28
2022-08-28T20:07:39.850Z,96307.53
2022-08-28T20:10:08.272Z,96312.28
2022-08-28T20:12:38.450Z,96309.63
2022-08-28T20:15:07.378Z,96305.41
2022-08-28T20:17:35.314Z,96313.63
2022-08-28T20:20:13.277Z,96313.75
2022-08-28T20:22:40.849Z,96318.47
2022-08-28T20:25:09.516Z,96321.59
2022-08-28T20:27:37.338Z,96313.50
2022-08-28T20:30:10.587Z,96318.50
2022-08-28T20:32:40.866Z,96323.00
2022-08-28T20:35:10.979Z,96323.00
2022-08-28T20:37:44.903Z,96297.91
2022-08-28T20:40:14.698Z,96320.19
2022-08-28T20:42:42.269Z,96323.13
2022-08-28T20:45:10.362Z,96324.97
2022-08-28T20:47:37.925Z,96322.13
2022-08-28T20:50:06.445Z,96328.16
2022-08-28T20:52:34.262Z,96326.88
2022-08-28T20:55:03.385Z,96324.78
2022-08-28T20:57:30.900Z,96334.47
2022-08-28T21:00:02.155Z,96320.09
2022-08-28T21:02:32.728Z,96336.91
2022-08-28T21:05:00.388Z,96334.81
2022-08-28T21:07:28.398Z,96332.69
2022-08-28T21:10:04.920Z,96341.38
2022-08-28T21:12:35.701Z,96342.16
2022-08-28T21:15:03.500Z,96345.56
2022-08-28T21:17:31.179Z,96346.63
2022-08-28T21:20:01.000Z,96340.31
2022-08-28T21:22:29.897Z,96347.97
2022-08-28T21:24:57.358Z,96332.75
2022-08-28T21:27:25.529Z,96338.25
2022-08-28T21:29:58.169Z,96351.91
2022-08-28T21:32:25.876Z,96352.19
2022-08-28T21:34:54.412Z,96345.34
2022-08-28T21:37:22.066Z,96348.75
2022-08-28T21:39:49.582Z,96350.84
2022-08-28T21:42:17.094Z,96351.13
2022-08-28T21:44:51.298Z,96354.31
2022-08-28T21:47:21.211Z,96361.13
2022-08-28T21:49:48.929Z,96363.50
2022-08-28T21:52:16.497Z,96358.47
2022-08-28T21:54:43.939Z,96367.69
2022-08-28T21:57:11.408Z,96362.16
2022-08-28T21:59:38.884Z,96366.09
2022-08-28T22:02:06.587Z,96374.75
2022-08-28T22:04:35.692Z,96370.56
2022-08-28T22:07:03.150Z,96365.59
2022-08-28T22:09:30.598Z,96362.16
2022-08-28T22:11:58.192Z,96360.31
2022-08-28T22:14:26.006Z,96359.97
2022-08-28T22:16:53.458Z,96355.28
2022-08-28T22:19:20.985Z,96361.28
2022-08-28T22:22:07.495Z,96368.06
2022-08-28T22:24:36.472Z,96366.97
2022-08-28T22:27:04.675Z,96367.75
2022-08-28T22:29:36.364Z,96374.06
2022-08-28T22:32:04.392Z,96375.34
2022-08-28T22:34:32.120Z,96369.03
2022-08-28T22:37:00.906Z,96369.00
2022-08-28T22:39:28.387Z,96371.38
2022-08-28T22:41:55.858Z,96371.03
2022-08-28T22:44:23.334Z,96389.16
2022-08-28T22:46:50.857Z,96381.78
2022-08-28T22:49:18.339Z,96374.44
2022-08-28T22:51:45.814Z,96383.34
2022-08-28T22:54:14.653Z,96374.94
2022-08-28T22:56:42.118Z,96379.38
2022-08-28T22:59:09.982Z,96379.13
2022-08-28T23:01:37.649Z,96371.75
2022-08-28T23:04:05.568Z,96374.03
2022-08-28T23:06:33.313Z,96378.50
2022-08-28T23:09:01.168Z,96377.41
2022-08-28T23:11:30.098Z,96379.72
2022-08-28T23:13:57.553Z,96376.78
2022-08-28T23:16:25.190Z,96360.78
2022-08-28T23:19:09.239Z,96375.94
2022-08-28T23:21:44.017Z,96362.59
2022-08-28T23:24:13.177Z,96358.13
2022-08-28T23:26:42.092Z,96372.81
2022-08-28T23:29:09.965Z,96370.28
2022-08-28T23:31:38.204Z,96371.03
2022-08-28T23:34:06.222Z,96368.97
2022-08-28T23:36:35.567Z,96371.81
2022-08-28T23:39:04.281Z,96362.06
2022-08-28T23:41:31.886Z,96361.75
2022-08-28T23:44:05.251Z,96368.53
2022-08-28T23:46:36.444Z,96370.88
2022-08-28T23:49:04.347Z,96352.97
2022-08-28T23:51:32.454Z,96348.25
2022-08-28T23:53:59.922Z,96341.38
2022-08-28T23:56:28.051Z,96344.94
2022-08-28T23:58:55.946Z,96350.44
